sensor_id;sensor_type;location;lat;lon;timestamp;P1;durP1;ratioP1;P2;durP2;ratioP2
14153;SDS011;7157;53.144;7.570;2023-08-01T00:04:05;11.82;;;4.15;;
14153;SDS011;7157;53.144;7.570;2023-08-01T00:14:08;18.75;;;5.20;;
14153;SDS011;7157;53.144;7.570;2023-08-01T00:24:12;12.95;;;5.05;;
14153;SDS011;7157;53.144;7.570;2023-08-01T00:34:15;18.10;;;6.95;;
14153;SDS011;7157;53.144;7.570;2023-08-01T00:44:19;14.20;;;7.68;;
14153;SDS011;7157;53.144;7.570;2023-08-01T00:54:22;16.35;;;7.85;;
14153;SDS011;7157;53.144;7.570;2023-08-01T01:04:26;18.27;;;7.32;;
14153;SDS011;7157;53.144;7.570;2023-08-01T01:14:29;18.63;;;7.68;;
14153;SDS011;7157;53.144;7.570;2023-08-01T01:24:33;14.40;;;6.75;;
14153;SDS011;7157;53.144;7.570;2023-08-01T01:34:38;16.98;;;6.50;;
14153;SDS011;7157;53.144;7.570;2023-08-01T01:44:42;12.10;;;5.70;;
14153;SDS011;7157;53.144;7.570;2023-08-01T01:54:45;15.18;;;6.65;;
14153;SDS011;7157;53.144;7.570;2023-08-01T02:04:49;16.67;;;6.72;;
14153;SDS011;7157;53.144;7.570;2023-08-01T02:14:53;16.85;;;5.65;;
14153;SDS011;7157;53.144;7.570;2023-08-01T02:24:57;11.32;;;5.78;;
14153;SDS011;7157;53.144;7.570;2023-08-01T02:35:02;12.38;;;5.15;;
14153;SDS011;7157;53.144;7.570;2023-08-01T02:45:07;8.18;;;4.32;;
14153;SDS011;7157;53.144;7.570;2023-08-01T02:55:10;12.25;;;3.90;;
14153;SDS011;7157;53.144;7.570;2023-08-01T03:05:14;7.70;;;3.60;;
14153;SDS011;7157;53.144;7.570;2023-08-01T03:15:18;11.02;;;3.90;;
14153;SDS011;7157;53.144;7.570;2023-08-01T03:25:22;9.38;;;3.28;;
14153;SDS011;7157;53.144;7.570;2023-08-01T03:35:25;9.63;;;3.28;;
14153;SDS011;7157;53.144;7.570;2023-08-01T03:45:29;10.70;;;3.45;;
14153;SDS011;7157;53.144;7.570;2023-08-01T03:55:32;11.80;;;2.85;;
14153;SDS011;7157;53.144;7.570;2023-08-01T04:05:36;11.45;;;3.30;;
14153;SDS011;7157;53.144;7.570;2023-08-01T04:15:39;9.82;;;2.92;;
14153;SDS011;7157;53.144;7.570;2023-08-01T04:25:43;7.47;;;3.35;;
14153;SDS011;7157;53.144;7.570;2023-08-01T04:35:46;12.00;;;5.43;;
14153;SDS011;7157;53.144;7.570;2023-08-01T04:45:51;12.35;;;5.13;;
14153;SDS011;7157;53.144;7.570;2023-08-01T04:55:54;13.35;;;6.32;;
14153;SDS011;7157;53.144;7.570;2023-08-01T05:05:58;15.05;;;6.07;;
14153;SDS011;7157;53.144;7.570;2023-08-01T05:16:01;16.52;;;5.85;;
14153;SDS011;7157;53.144;7.570;2023-08-01T05:26:05;9.70;;;4.32;;
14153;SDS011;7157;53.144;7.570;2023-08-01T05:36:08;7.47;;;4.32;;
14153;SDS011;7157;53.144;7.570;2023-08-01T05:46:13;11.77;;;3.55;;
14153;SDS011;7157;53.144;7.570;2023-08-01T05:56:16;11.95;;;3.08;;
14153;SDS011;7157;53.144;7.570;2023-08-01T06:06:20;6.93;;;2.33;;
14153;SDS011;7157;53.144;7.570;2023-08-01T06:16:23;13.35;;;1.70;;
14153;SDS011;7157;53.144;7.570;2023-08-01T06:26:29;7.15;;;1.40;;
14153;SDS011;7157;53.144;7.570;2023-08-01T06:36:32;7.57;;;1.60;;
14153;SDS011;7157;53.144;7.570;2023-08-01T06:46:36;5.00;;;1.55;;
14153;SDS011;7157;53.144;7.570;2023-08-01T06:56:39;6.78;;;1.73;;
14153;SDS011;7157;53.144;7.570;2023-08-01T07:06:49;3.50;;;1.30;;
14153;SDS011;7157;53.144;7.570;2023-08-01T07:16:52;6.13;;;1.30;;
14153;SDS011;7157;53.144;7.570;2023-08-01T07:26:57;4.78;;;1.20;;
14153;SDS011;7157;53.144;7.570;2023-08-01T07:37:00;5.40;;;1.25;;
14153;SDS011;7157;53.144;7.570;2023-08-01T07:47:04;3.60;;;1.48;;
14153;SDS011;7157;53.144;7.570;2023-08-01T07:57:07;4.38;;;1.20;;
14153;SDS011;7157;53.144;7.570;2023-08-01T08:07:11;7.03;;;1.50;;
14153;SDS011;7157;53.144;7.570;2023-08-01T08:17:14;3.92;;;1.30;;
14153;SDS011;7157;53.144;7.570;2023-08-01T08:27:18;3.40;;;1.00;;
14153;SDS011;7157;53.144;7.570;2023-08-01T08:37:22;4.93;;;1.45;;
14153;SDS011;7157;53.144;7.570;2023-08-01T08:47:26;4.85;;;0.77;;
14153;SDS011;7157;53.144;7.570;2023-08-01T08:57:30;7.38;;;1.67;;
14153;SDS011;7157;53.144;7.570;2023-08-01T09:07:35;3.30;;;0.90;;
14153;SDS011;7157;53.144;7.570;2023-08-01T09:17:49;2.90;;;1.13;;
14153;SDS011;7157;53.144;7.570;2023-08-01T09:27:54;3.17;;;1.25;;
14153;SDS011;7157;53.144;7.570;2023-08-01T09:37:57;6.03;;;1.10;;
14153;SDS011;7157;53.144;7.570;2023-08-01T09:48:04;2.95;;;0.82;;
14153;SDS011;7157;53.144;7.570;2023-08-01T09:58:07;7.68;;;1.10;;
14153;SDS011;7157;53.144;7.570;2023-08-01T10:08:11;5.38;;;1.13;;
14153;SDS011;7157;53.144;7.570;2023-08-01T10:18:16;6.88;;;1.30;;
14153;SDS011;7157;53.144;7.570;2023-08-01T10:28:30;2.90;;;0.80;;
14153;SDS011;7157;53.144;7.570;2023-08-01T10:38:43;2.92;;;0.77;;
14153;SDS011;7157;53.144;7.570;2023-08-01T10:48:49;3.97;;;0.90;;
14153;SDS011;7157;53.144;7.570;2023-08-01T10:58:52;6.28;;;0.70;;
14153;SDS011;7157;53.144;7.570;2023-08-01T11:08:57;4.63;;;1.00;;
14153;SDS011;7157;53.144;7.570;2023-08-01T11:18:59;3.13;;;1.00;;
14153;SDS011;7157;53.144;7.570;2023-08-01T11:29:03;3.58;;;0.95;;
14153;SDS011;7157;53.144;7.570;2023-08-01T11:39:07;4.57;;;0.77;;
14153;SDS011;7157;53.144;7.570;2023-08-01T11:49:13;3.45;;;0.82;;
14153;SDS011;7157;53.144;7.570;2023-08-01T11:59:16;3.22;;;1.10;;
14153;SDS011;7157;53.144;7.570;2023-08-01T12:09:21;2.65;;;1.10;;
14153;SDS011;7157;53.144;7.570;2023-08-01T12:19:26;4.18;;;1.25;;
14153;SDS011;7157;53.144;7.570;2023-08-01T12:29:30;7.65;;;1.08;;
14153;SDS011;7157;53.144;7.570;2023-08-01T12:39:33;5.32;;;1.15;;
14153;SDS011;7157;53.144;7.570;2023-08-01T12:49:37;3.85;;;1.00;;
14153;SDS011;7157;53.144;7.570;2023-08-01T12:59:40;5.15;;;0.90;;
14153;SDS011;7157;53.144;7.570;2023-08-01T13:09:44;5.38;;;1.10;;
14153;SDS011;7157;53.144;7.570;2023-08-01T13:19:47;6.95;;;0.98;;
14153;SDS011;7157;53.144;7.570;2023-08-01T13:29:51;3.83;;;0.93;;
14153;SDS011;7157;53.144;7.570;2023-08-01T13:39:56;5.03;;;1.00;;
14153;SDS011;7157;53.144;7.570;2023-08-01T13:50:00;7.95;;;1.00;;
14153;SDS011;7157;53.144;7.570;2023-08-01T14:00:03;6.93;;;1.17;;
14153;SDS011;7157;53.144;7.570;2023-08-01T14:10:15;5.72;;;1.15;;
14153;SDS011;7157;53.144;7.570;2023-08-01T14:20:18;6.93;;;1.25;;
14153;SDS011;7157;53.144;7.570;2023-08-01T14:30:22;3.80;;;1.02;;
14153;SDS011;7157;53.144;7.570;2023-08-01T14:40:25;9.35;;;1.10;;
14153;SDS011;7157;53.144;7.570;2023-08-01T14:50:29;4.90;;;0.80;;
14153;SDS011;7157;53.144;7.570;2023-08-01T15:00:34;2.55;;;0.80;;
14153;SDS011;7157;53.144;7.570;2023-08-01T15:10:38;2.53;;;0.77;;
14153;SDS011;7157;53.144;7.570;2023-08-01T15:20:41;1.63;;;0.60;;
14153;SDS011;7157;53.144;7.570;2023-08-01T15:30:45;1.77;;;0.65;;
14153;SDS011;7157;53.144;7.570;2023-08-01T15:40:48;4.90;;;0.85;;
14153;SDS011;7157;53.144;7.570;2023-08-01T15:50:55;3.08;;;1.05;;
14153;SDS011;7157;53.144;7.570;2023-08-01T16:00:58;2.45;;;0.90;;
14153;SDS011;7157;53.144;7.570;2023-08-01T16:11:03;4.30;;;1.15;;
14153;SDS011;7157;53.144;7.570;2023-08-01T16:21:06;4.28;;;1.45;;
14153;SDS011;7157;53.144;7.570;2023-08-01T16:31:10;6.13;;;1.55;;
14153;SDS011;7157;53.144;7.570;2023-08-01T16:41:13;4.30;;;1.17;;
14153;SDS011;7157;53.144;7.570;2023-08-01T16:51:23;5.05;;;1.17;;
14153;SDS011;7157;53.144;7.570;2023-08-01T17:01:26;4.60;;;1.10;;
14153;SDS011;7157;53.144;7.570;2023-08-01T17:11:30;4.25;;;1.27;;
14153;SDS011;7157;53.144;7.570;2023-08-01T17:21:33;7.75;;;1.30;;
14153;SDS011;7157;53.144;7.570;2023-08-01T17:31:37;6.22;;;1.83;;
14153;SDS011;7157;53.144;7.570;2023-08-01T17:41:41;6.43;;;1.20;;
14153;SDS011;7157;53.144;7.570;2023-08-01T17:51:45;5.97;;;1.40;;
14153;SDS011;7157;53.144;7.570;2023-08-01T18:01:48;4.00;;;1.17;;
14153;SDS011;7157;53.144;7.570;2023-08-01T18:11:54;5.45;;;1.15;;
14153;SDS011;7157;53.144;7.570;2023-08-01T18:21:57;2.80;;;1.10;;
14153;SDS011;7157;53.144;7.570;2023-08-01T18:32:01;3.00;;;1.10;;
14153;SDS011;7157;53.144;7.570;2023-08-01T18:42:05;6.60;;;1.48;;
14153;SDS011;7157;53.144;7.570;2023-08-01T18:52:09;7.22;;;1.35;;
14153;SDS011;7157;53.144;7.570;2023-08-01T19:02:12;7.32;;;1.67;;
14153;SDS011;7157;53.144;7.570;2023-08-01T19:12:16;6.03;;;1.80;;
14153;SDS011;7157;53.144;7.570;2023-08-01T19:22:19;3.90;;;1.40;;
14153;SDS011;7157;53.144;7.570;2023-08-01T19:32:27;5.82;;;1.45;;
14153;SDS011;7157;53.144;7.570;2023-08-01T19:42:30;5.68;;;1.60;;
14153;SDS011;7157;53.144;7.570;2023-08-01T19:52:34;6.03;;;2.33;;
14153;SDS011;7157;53.144;7.570;2023-08-01T20:02:37;6.45;;;1.38;;
14153;SDS011;7157;53.144;7.570;2023-08-01T20:12:42;4.32;;;1.27;;
14153;SDS011;7157;53.144;7.570;2023-08-01T20:22:45;6.95;;;1.55;;
14153;SDS011;7157;53.144;7.570;2023-08-01T20:32:51;5.43;;;1.30;;
14153;SDS011;7157;53.144;7.570;2023-08-01T20:42:59;5.40;;;1.30;;
14153;SDS011;7157;53.144;7.570;2023-08-01T20:53:03;3.28;;;1.17;;
14153;SDS011;7157;53.144;7.570;2023-08-01T21:03:05;4.00;;;1.40;;
14153;SDS011;7157;53.144;7.570;2023-08-01T21:13:10;4.05;;;1.02;;
14153;SDS011;7157;53.144;7.570;2023-08-01T21:23:12;5.90;;;1.55;;
14153;SDS011;7157;53.144;7.570;2023-08-01T21:33:16;6.10;;;1.65;;
14153;SDS011;7157;53.144;7.570;2023-08-01T21:43:19;3.53;;;1.17;;
14153;SDS011;7157;53.144;7.570;2023-08-01T21:53:23;4.78;;;1.23;;
14153;SDS011;7157;53.144;7.570;2023-08-01T22:03:26;5.38;;;1.33;;
14153;SDS011;7157;53.144;7.570;2023-08-01T22:13:30;4.45;;;1.30;;
14153;SDS011;7157;53.144;7.570;2023-08-01T22:23:33;10.25;;;1.63;;
14153;SDS011;7157;53.144;7.570;2023-08-01T22:33:37;8.95;;;1.95;;
14153;SDS011;7157;53.144;7.570;2023-08-01T22:43:40;5.85;;;1.42;;
14153;SDS011;7157;53.144;7.570;2023-08-01T22:53:45;4.82;;;1.42;;
14153;SDS011;7157;53.144;7.570;2023-08-01T23:03:49;4.05;;;1.40;;
14153;SDS011;7157;53.144;7.570;2023-08-01T23:13:53;3.95;;;1.30;;
14153;SDS011;7157;53.144;7.570;2023-08-01T23:23:56;7.28;;;1.63;;
14153;SDS011;7157;53.144;7.570;2023-08-01T23:34:01;3.92;;;1.30;;
14153;SDS011;7157;53.144;7.570;2023-08-01T23:44:03;5.25;;;1.27;;
14153;SDS011;7157;53.144;7.570;2023-08-01T23:54:08;4.53;;;1.58;;
